Terminal Aerodrome Forecast
Issued by NWS Des Moines, IA

Home | Current Version | Previous Version | Text Only | Print | Product List | Glossary On
Versions: 1 2 3 4 5 6 7 8 9 10 11 12 13 14 15 16 17
000
FTUS43 KDMX 011732
TAFDSM
TAF
KDSM 011732Z 0118/0218 36005KT P6SM SCT015 BKN025 OVC050
     FM012100 01005KT P6SM OVC035
     FM020900 VRB03KT 3SM BR BKN015
     FM021500 VRB03KT P6SM BKN025
     FM021700 VRB03KT P6SM BKN035=

USA.gov is the U.S. government's official web portal to all federal, state and local government web resources and services.